Time;durP1;ratioP1;P1;durP2;ratioP2;P2;SDS_P1;SDS_P2;PMS_P1;PMS_P2;Temp;Humidity;BMP_temperature;BMP_pressure;BME280_temperature;BME280_humidity;BME280_pressure;Samples;Min_cycle;Max_cycle;Signal;HPM_P1;HPM_P2
2022/08/14 00:01:38;;;;;;;;;3.00;3.00;;;;;;;;4999619;28;8913;-79
2022/08/14 00:04:07;;;;;;;;;3.75;3.75;;;;;;;;5001151;28;8876;-79
2022/08/14 00:06:34;;;;;;;;;1.25;1.25;;;;;;;;5000232;28;8894;-79
2022/08/14 00:09:01;;;;;;;;;3.25;3.25;;;;;;;;4996430;28;8855;-79
2022/08/14 00:11:29;;;;;;;;;3.00;3.00;;;;;;;;5003344;28;8860;-79
2022/08/14 00:13:56;;;;;;;;;3.00;3.00;;;;;;;;4999998;28;8884;-78
2022/08/14 00:16:24;;;;;;;;;3.75;3.75;;;;;;;;5002886;28;8961;-79
2022/08/14 00:18:51;;;;;;;;;4.00;4.00;;;;;;;;5000284;28;8910;-79
2022/08/14 00:21:20;;;;;;;;;3.00;3.00;;;;;;;;5002849;28;8898;-78
2022/08/14 00:23:47;;;;;;;;;3.00;3.00;;;;;;;;4999745;28;8880;-80
2022/08/14 00:26:14;;;;;;;;;4.50;3.25;;;;;;;;5003368;28;8887;-80
2022/08/14 00:28:42;;;;;;;;;7.00;3.25;;;;;;;;4999736;28;8900;-79
2022/08/14 00:31:09;;;;;;;;;2.50;2.50;;;;;;;;4996072;28;8832;-78
2022/08/14 00:33:37;;;;;;;;;2.75;2.75;;;;;;;;4998559;28;8886;-78
2022/08/14 00:36:05;;;;;;;;;2.25;2.25;;;;;;;;5000214;28;8868;-78
2022/08/14 00:38:34;;;;;;;;;3.00;3.00;;;;;;;;4999905;28;8860;-78
2022/08/14 00:41:03;;;;;;;;;3.00;3.00;;;;;;;;4995335;28;8879;-77
2022/08/14 00:43:30;;;;;;;;;3.00;3.00;;;;;;;;4998367;28;8968;-78
2022/08/14 00:45:57;;;;;;;;;3.00;3.00;;;;;;;;5000202;28;8888;-79
2022/08/14 00:48:25;;;;;;;;;5.00;3.75;;;;;;;;4997824;28;8926;-79
2022/08/14 00:50:53;;;;;;;;;3.00;3.00;;;;;;;;4998388;28;8876;-78
2022/08/14 00:53:22;;;;;;;;;2.50;2.50;;;;;;;;4996281;28;8910;-78
2022/08/14 00:55:54;;;;;;;;;5.25;4.75;;;;;;;;4996522;28;9004;-79
2022/08/14 00:58:31;;;;;;;;;3.00;3.00;;;;;;;;4994999;28;8932;-78
2022/08/14 01:00:59;;;;;;;;;2.75;2.75;;;;;;;;4996268;28;8825;-78
2022/08/14 01:03:28;;;;;;;;;4.50;4.00;;;;;;;;4998684;28;8865;-79
2022/08/14 01:05:56;;;;;;;;;2.00;2.00;;;;;;;;4995588;28;8896;-80
2022/08/14 01:08:25;;;;;;;;;2.75;2.75;;;;;;;;4998577;28;8861;-79
2022/08/14 01:10:54;;;;;;;;;3.00;3.00;;;;;;;;4996006;28;8872;-78
2022/08/14 01:13:24;;;;;;;;;3.00;3.00;;;;;;;;4998307;28;8853;-78
2022/08/14 01:15:52;;;;;;;;;3.75;3.75;;;;;;;;4995986;28;8856;-78
2022/08/14 01:21:08;;;;;;;;;2.00;2.00;;;;;;;;4999320;28;8840;-78
2022/08/14 01:23:39;;;;;;;;;3.00;3.00;;;;;;;;4997685;28;8979;-79
2022/08/14 01:26:08;;;;;;;;;4.25;4.00;;;;;;;;4998206;28;8905;-77
2022/08/14 01:28:36;;;;;;;;;4.00;4.00;;;;;;;;5001912;28;8969;-77
2022/08/14 01:31:07;;;;;;;;;5.25;5.25;;;;;;;;5000235;28;8827;-77
2022/08/14 01:33:39;;;;;;;;;3.25;3.25;;;;;;;;4997148;28;8883;-77
2022/08/14 01:36:10;;;;;;;;;3.25;3.25;;;;;;;;5002413;28;9624;-78
2022/08/14 01:38:40;;;;;;;;;4.50;4.50;;;;;;;;5001065;28;8869;-77
2022/08/14 01:41:10;;;;;;;;;3.50;3.00;;;;;;;;5001121;28;8873;-79
2022/08/14 01:43:44;;;;;;;;;2.00;2.00;;;;;;;;5003796;28;8856;-78
2022/08/14 01:46:11;;;;;;;;;4.75;4.00;;;;;;;;5001380;28;9706;-78
2022/08/14 01:48:43;;;;;;;;;4.75;4.75;;;;;;;;5002751;28;8884;-78
2022/08/14 01:51:12;;;;;;;;;4.00;4.00;;;;;;;;4998909;28;8884;-78
2022/08/14 01:53:43;;;;;;;;;4.00;4.00;;;;;;;;5002632;28;8950;-78
2022/08/14 01:56:11;;;;;;;;;2.25;2.00;;;;;;;;5003237;28;8897;-77
2022/08/14 01:58:38;;;;;;;;;2.50;2.50;;;;;;;;5000943;28;8864;-78
2022/08/14 02:01:09;;;;;;;;;5.75;4.00;;;;;;;;5001446;28;8839;-78
2022/08/14 02:03:40;;;;;;;;;3.00;3.00;;;;;;;;5003193;28;8888;-77
2022/08/14 02:06:10;;;;;;;;;3.50;3.50;;;;;;;;5001142;28;8876;-77
2022/08/14 02:08:40;;;;;;;;;3.00;3.00;;;;;;;;5002001;28;8904;-78
2022/08/14 02:11:22;;;;;;;;;3.25;3.00;;;;;;;;4999069;28;8880;-78
2022/08/14 02:13:53;;;;;;;;;5.00;4.75;;;;;;;;5002218;28;8884;-77
2022/08/14 02:16:24;;;;;;;;;5.25;5.25;;;;;;;;5003819;28;8884;-78
2022/08/14 02:18:53;;;;;;;;;4.50;4.00;;;;;;;;5005679;28;8872;-77
2022/08/14 02:21:20;;;;;;;;;3.75;3.75;;;;;;;;5000334;28;8955;-78
2022/08/14 02:23:49;;;;;;;;;4.00;4.00;;;;;;;;5002576;28;9547;-78
2022/08/14 02:26:21;;;;;;;;;5.75;4.50;;;;;;;;5002125;28;8860;-78
2022/08/14 02:28:50;;;;;;;;;4.00;4.00;;;;;;;;5000969;28;8906;-77
2022/08/14 02:31:17;;;;;;;;;6.00;4.00;;;;;;;;4999787;28;8813;-78
2022/08/14 02:33:45;;;;;;;;;4.00;4.00;;;;;;;;4999725;28;8895;-78
2022/08/14 02:36:13;;;;;;;;;4.00;4.00;;;;;;;;5004285;28;8877;-77
2022/08/14 02:38:41;;;;;;;;;4.00;4.00;;;;;;;;5000716;28;8907;-78
2022/08/14 02:41:11;;;;;;;;;4.00;4.00;;;;;;;;4999785;28;8909;-77
2022/08/14 02:43:41;;;;;;;;;4.75;4.75;;;;;;;;4999157;28;9745;-77
2022/08/14 02:46:10;;;;;;;;;5.25;5.25;;;;;;;;4997565;28;8990;-77
2022/08/14 02:48:39;;;;;;;;;4.00;4.00;;;;;;;;5002150;28;8880;-78
2022/08/14 02:51:12;;;;;;;;;4.00;4.00;;;;;;;;4999399;28;8874;-79
2022/08/14 02:53:43;;;;;;;;;5.50;5.00;;;;;;;;5000883;28;8864;-78
2022/08/14 02:56:12;;;;;;;;;4.25;4.25;;;;;;;;4995928;28;9626;-78
2022/08/14 02:58:45;;;;;;;;;4.75;4.75;;;;;;;;5001397;28;8888;-78
2022/08/14 03:01:14;;;;;;;;;4.25;4.25;;;;;;;;4998633;28;8826;-78
2022/08/14 03:03:42;;;;;;;;;2.00;2.00;;;;;;;;4998995;28;8884;-78
2022/08/14 03:06:11;;;;;;;;;4.00;4.00;;;;;;;;5001577;28;8852;-78
2022/08/14 03:08:40;;;;;;;;;4.00;4.00;;;;;;;;4998062;28;9034;-79
2022/08/14 03:11:10;;;;;;;;;3.00;3.00;;;;;;;;5001407;28;8874;-78
2022/08/14 03:13:39;;;;;;;;;6.50;5.00;;;;;;;;5001569;28;9657;-78
2022/08/14 03:16:11;;;;;;;;;4.00;4.00;;;;;;;;5002429;28;9642;-78
2022/08/14 03:18:41;;;;;;;;;4.75;4.75;;;;;;;;5000512;28;8876;-79
2022/08/14 03:21:12;;;;;;;;;4.25;4.25;;;;;;;;5005040;28;8883;-80
2022/08/14 03:23:40;;;;;;;;;2.25;2.25;;;;;;;;4996663;28;8875;-80
2022/08/14 03:26:08;;;;;;;;;4.50;4.50;;;;;;;;4998741;28;8910;-79
2022/08/14 03:28:37;;;;;;;;;3.00;3.00;;;;;;;;5000827;28;8899;-80
2022/08/14 03:31:05;;;;;;;;;4.00;4.00;;;;;;;;4999677;28;8953;-79
2022/08/14 03:33:36;;;;;;;;;3.50;3.50;;;;;;;;5000640;28;8882;-80
2022/08/14 03:36:07;;;;;;;;;4.00;4.00;;;;;;;;5000365;28;8864;-79
2022/08/14 03:38:41;;;;;;;;;3.00;3.00;;;;;;;;5001471;28;9596;-79
2022/08/14 03:41:13;;;;;;;;;5.75;4.00;;;;;;;;4999292;28;8898;-79
2022/08/14 03:43:40;;;;;;;;;4.50;4.25;;;;;;;;4998226;28;8944;-79
2022/08/14 03:46:12;;;;;;;;;4.00;4.00;;;;;;;;5000731;28;8872;-79
2022/08/14 03:48:41;;;;;;;;;3.25;3.25;;;;;;;;5001272;28;8884;-78
2022/08/14 03:51:11;;;;;;;;;5.00;5.00;;;;;;;;5002534;28;8898;-79
2022/08/14 03:53:40;;;;;;;;;2.75;2.75;;;;;;;;4998378;28;8934;-79
2022/08/14 03:56:11;;;;;;;;;4.00;4.00;;;;;;;;4993229;28;8941;-78
2022/08/14 03:58:44;;;;;;;;;3.50;3.50;;;;;;;;5000691;28;8865;-80
2022/08/14 04:01:11;;;;;;;;;5.00;5.00;;;;;;;;5000579;28;8846;-79
2022/08/14 04:03:40;;;;;;;;;5.25;5.25;;;;;;;;4996888;28;8879;-80
2022/08/14 04:06:10;;;;;;;;;5.00;5.00;;;;;;;;5002535;28;9262;-79
2022/08/14 04:08:38;;;;;;;;;6.50;6.00;;;;;;;;5002148;28;8888;-79
2022/08/14 04:11:08;;;;;;;;;4.75;4.75;;;;;;;;4997659;28;8894;-79
2022/08/14 04:13:38;;;;;;;;;3.75;3.75;;;;;;;;4998255;28;9034;-78
2022/08/14 04:16:10;;;;;;;;;4.00;4.00;;;;;;;;5002422;28;8950;-77
2022/08/14 04:18:45;;;;;;;;;5.00;5.00;;;;;;;;4997407;28;8897;-76
2022/08/14 04:21:13;;;;;;;;;4.25;4.00;;;;;;;;5002418;28;8890;-77
2022/08/14 04:23:41;;;;;;;;;7.50;6.00;;;;;;;;4994652;28;8910;-78
2022/08/14 04:26:10;;;;;;;;;3.25;3.25;;;;;;;;5000068;28;8904;-77
2022/08/14 04:28:39;;;;;;;;;8.25;4.50;;;;;;;;4996468;28;8877;-77
2022/08/14 04:31:08;;;;;;;;;4.00;4.00;;;;;;;;4998485;28;8832;-78
2022/08/14 04:33:36;;;;;;;;;4.00;4.00;;;;;;;;4998077;28;8876;-78
2022/08/14 04:36:05;;;;;;;;;4.75;4.75;;;;;;;;4997558;28;8880;-78
2022/08/14 04:44:14;;;;;;;;;5.25;5.25;;;;;;;;4995046;28;8879;-77
2022/08/14 04:48:11;;;;;;;;;1.00;0.00;;;;;;;;5001595;28;8864;-78
2022/08/14 04:49:28;;;;;;;;;4.00;4.00;;;;;;;;4998539;28;8860;-77
2022/08/14 04:51:57;;;;;;;;;5.00;5.00;;;;;;;;5000234;28;8884;-77
2022/08/14 04:54:25;;;;;;;;;5.75;5.00;;;;;;;;4998565;28;8906;-78
2022/08/14 04:56:53;;;;;;;;;5.00;4.25;;;;;;;;4998780;28;8888;-78
2022/08/14 04:59:21;;;;;;;;;3.25;3.25;;;;;;;;5001009;28;8899;-78
2022/08/14 05:01:49;;;;;;;;;4.00;4.00;;;;;;;;4996939;28;8828;-77
2022/08/14 05:04:17;;;;;;;;;4.00;4.00;;;;;;;;5000562;28;8848;-78
2022/08/14 05:06:45;;;;;;;;;5.25;4.50;;;;;;;;4998295;28;8865;-77
2022/08/14 05:09:13;;;;;;;;;6.00;6.00;;;;;;;;4994390;28;8875;-78
2022/08/14 05:11:41;;;;;;;;;5.00;5.00;;;;;;;;4998531;28;8918;-77
2022/08/14 05:14:10;;;;;;;;;3.50;3.50;;;;;;;;4996030;28;8875;-76
2022/08/14 05:16:37;;;;;;;;;6.75;5.25;;;;;;;;5000982;28;8892;-79
2022/08/14 05:19:05;;;;;;;;;4.00;4.00;;;;;;;;5000080;28;8865;-79
2022/08/14 05:21:33;;;;;;;;;3.25;3.25;;;;;;;;4997270;28;9647;-79
2022/08/14 05:24:01;;;;;;;;;2.75;2.75;;;;;;;;4997544;28;8907;-80
2022/08/14 05:26:29;;;;;;;;;4.25;4.25;;;;;;;;4996276;28;8871;-78
2022/08/14 05:28:57;;;;;;;;;4.00;4.00;;;;;;;;4998518;28;8934;-79
2022/08/14 05:31:24;;;;;;;;;3.25;3.25;;;;;;;;4996325;28;8828;-77
2022/08/14 05:33:52;;;;;;;;;5.00;5.00;;;;;;;;4994965;28;8954;-80
2022/08/14 05:36:20;;;;;;;;;3.50;3.50;;;;;;;;4999995;28;8860;-79
2022/08/14 05:38:48;;;;;;;;;3.25;3.25;;;;;;;;4998280;28;8890;-79
2022/08/14 05:41:18;;;;;;;;;5.00;5.00;;;;;;;;4998606;28;8896;-78
2022/08/14 05:43:49;;;;;;;;;5.00;5.00;;;;;;;;4997228;28;9620;-78
2022/08/14 05:46:21;;;;;;;;;7.25;5.25;;;;;;;;4995434;28;8868;-78
2022/08/14 05:48:49;;;;;;;;;3.25;3.25;;;;;;;;4999045;28;8888;-79
2022/08/14 05:51:16;;;;;;;;;6.25;6.00;;;;;;;;4998552;28;8883;-80
2022/08/14 05:53:44;;;;;;;;;4.50;4.50;;;;;;;;4997680;28;8872;-78
2022/08/14 05:56:12;;;;;;;;;4.00;4.00;;;;;;;;4998704;28;8938;-81
2022/08/14 05:58:39;;;;;;;;;5.00;5.00;;;;;;;;4999384;28;9801;-81
2022/08/14 06:01:10;;;;;;;;;4.00;4.00;;;;;;;;5001615;28;9637;-82
2022/08/14 06:03:37;;;;;;;;;4.00;4.00;;;;;;;;4992628;28;8875;-81
2022/08/14 06:06:05;;;;;;;;;7.00;5.00;;;;;;;;4998556;28;8893;-81
2022/08/14 06:08:33;;;;;;;;;6.50;5.00;;;;;;;;5001827;28;8880;-81
2022/08/14 06:11:03;;;;;;;;;5.25;5.25;;;;;;;;4999455;28;8880;-81
2022/08/14 06:13:31;;;;;;;;;4.25;4.25;;;;;;;;4997644;28;8876;-81
2022/08/14 06:15:58;;;;;;;;;3.00;3.00;;;;;;;;4996768;28;8886;-80
2022/08/14 06:18:27;;;;;;;;;5.25;4.00;;;;;;;;5003480;28;8884;-80
2022/08/14 06:20:54;;;;;;;;;5.00;5.00;;;;;;;;5005000;28;8871;-84
2022/08/14 06:23:22;;;;;;;;;4.75;4.75;;;;;;;;5004428;28;8908;-83
2022/08/14 06:25:49;;;;;;;;;4.75;4.75;;;;;;;;5005432;28;8868;-83
2022/08/14 06:28:17;;;;;;;;;6.25;5.25;;;;;;;;5005058;28;8892;-83
2022/08/14 06:30:44;;;;;;;;;4.75;4.75;;;;;;;;5002182;28;8841;-83
2022/08/14 06:33:12;;;;;;;;;3.75;3.75;;;;;;;;4997925;28;8884;-83
2022/08/14 06:35:40;;;;;;;;;3.25;3.25;;;;;;;;5004524;28;8902;-83
2022/08/14 06:38:08;;;;;;;;;4.00;4.00;;;;;;;;5000115;28;8930;-78
2022/08/14 06:40:37;;;;;;;;;4.25;4.25;;;;;;;;5000022;28;8907;-79
2022/08/14 06:43:10;;;;;;;;;5.00;5.00;;;;;;;;5000495;28;8891;-75
2022/08/14 06:45:41;;;;;;;;;7.00;6.00;;;;;;;;5002761;28;8960;-78
2022/08/14 06:48:15;;;;;;;;;5.00;5.00;;;;;;;;5003317;28;8883;-77
2022/08/14 06:50:44;;;;;;;;;5.00;5.00;;;;;;;;5001153;28;9732;-78
2022/08/14 06:53:13;;;;;;;;;5.00;5.00;;;;;;;;5001545;28;8872;-80
2022/08/14 06:55:41;;;;;;;;;6.00;5.75;;;;;;;;5001265;28;8930;-81
2022/08/14 06:58:12;;;;;;;;;4.00;4.00;;;;;;;;5002817;28;8991;-83
2022/08/14 07:05:44;;;;;;;;;4.00;4.00;;;;;;;;5000128;28;8821;-83
2022/08/14 07:06:15;;;;;;;;;5.00;5.00;;;;;;;;5001472;28;8856;-81
2022/08/14 07:08:43;;;;;;;;;4.00;4.00;;;;;;;;5001356;28;8900;-80
2022/08/14 07:11:12;;;;;;;;;7.25;5.50;;;;;;;;5003597;28;9812;-82
2022/08/14 07:13:39;;;;;;;;;5.00;5.00;;;;;;;;4998599;28;8898;-83
2022/08/14 07:16:08;;;;;;;;;6.25;5.00;;;;;;;;5006979;28;9002;-80
2022/08/14 07:18:37;;;;;;;;;5.00;5.00;;;;;;;;5004964;28;8860;-82
2022/08/14 07:21:17;;;;;;;;;6.75;5.00;;;;;;;;5003461;28;8872;-81
2022/08/14 07:23:46;;;;;;;;;3.50;3.50;;;;;;;;5000650;28;8960;-82
2022/08/14 07:26:13;;;;;;;;;7.00;5.80;;;;;;;;5002559;28;8872;-82
2022/08/14 07:28:41;;;;;;;;;5.00;5.00;;;;;;;;5001783;28;8880;-80
2022/08/14 07:31:11;;;;;;;;;6.80;5.00;;;;;;;;5002504;28;8933;-83
2022/08/14 07:33:40;;;;;;;;;3.80;3.80;;;;;;;;5002883;28;8894;-82
2022/08/14 07:36:10;;;;;;;;;6.00;6.00;;;;;;;;5003861;28;8860;-82
2022/08/14 07:38:42;;;;;;;;;5.00;5.00;;;;;;;;5003175;28;8872;-81
2022/08/14 07:41:12;;;;;;;;;7.00;7.00;;;;;;;;5003908;28;8887;-81
2022/08/14 07:43:42;;;;;;;;;5.00;5.00;;;;;;;;5001514;28;8876;-85
2022/08/14 07:46:11;;;;;;;;;4.20;4.20;;;;;;;;5003625;28;8872;-83
2022/08/14 07:48:40;;;;;;;;;5.20;5.20;;;;;;;;5003161;28;8888;-83
2022/08/14 07:51:09;;;;;;;;;8.60;5.00;;;;;;;;5003701;28;8895;-81
2022/08/14 07:53:37;;;;;;;;;6.00;6.00;;;;;;;;5002143;28;8864;-83
2022/08/14 07:56:04;;;;;;;;;7.60;6.00;;;;;;;;5003988;28;8887;-84
2022/08/14 07:58:35;;;;;;;;;4.60;4.20;;;;;;;;5001474;28;8888;-85
2022/08/14 08:01:02;;;;;;;;;5.20;5.20;;;;;;;;5003886;28;8874;-87
2022/08/14 08:03:34;;;;;;;;;4.80;4.80;;;;;;;;5001574;28;8973;-85
2022/08/14 08:06:03;;;;;;;;;5.00;5.00;;;;;;;;4997981;28;8891;-82
2022/08/14 08:08:31;;;;;;;;;6.60;4.80;;;;;;;;5001483;28;8876;-89
2022/08/14 08:10:59;;;;;;;;;6.00;6.00;;;;;;;;4999831;28;8923;-90
2022/08/14 08:13:27;;;;;;;;;5.80;5.80;;;;;;;;5002347;28;8930;-86
2022/08/14 08:16:01;;;;;;;;;4.80;4.80;;;;;;;;5001450;28;8872;-80
2022/08/14 08:18:29;;;;;;;;;4.80;4.80;;;;;;;;4997306;28;8876;-87
2022/08/14 08:20:58;;;;;;;;;6.40;6.40;;;;;;;;5003540;28;8862;-82
2022/08/14 08:23:28;;;;;;;;;4.80;4.80;;;;;;;;5002049;28;8892;-86
2022/08/14 08:25:57;;;;;;;;;4.80;4.80;;;;;;;;4999997;28;8895;-80
2022/08/14 08:28:26;;;;;;;;;4.00;4.00;;;;;;;;5002076;28;8987;-84
2022/08/14 08:30:56;;;;;;;;;5.80;5.80;;;;;;;;5000263;28;8813;-84
2022/08/14 08:33:27;;;;;;;;;5.40;5.40;;;;;;;;4999143;28;8919;-86
2022/08/14 08:35:57;;;;;;;;;5.20;5.20;;;;;;;;4998507;28;8892;-85
2022/08/14 08:38:26;;;;;;;;;5.00;4.20;;;;;;;;4997299;28;8873;-89
2022/08/14 08:40:57;;;;;;;;;4.80;4.80;;;;;;;;4999983;28;8899;-89
2022/08/14 08:43:26;;;;;;;;;5.40;5.20;;;;;;;;5002337;28;8848;-91
2022/08/14 08:45:56;;;;;;;;;3.80;3.00;;;;;;;;5001035;28;9011;-83
2022/08/14 08:48:27;;;;;;;;;4.40;4.40;;;;;;;;5002862;28;8894;-84
2022/08/14 08:50:59;;;;;;;;;4.00;4.00;;;;;;;;4999218;28;8873;-82
2022/08/14 08:53:33;;;;;;;;;2.00;2.00;;;;;;;;4996204;28;9075;-80
2022/08/14 08:56:01;;;;;;;;;4.40;4.40;;;;;;;;5001165;28;8856;-85
2022/08/14 08:58:29;;;;;;;;;5.80;4.40;;;;;;;;4999364;28;8888;-85
2022/08/14 09:01:00;;;;;;;;;3.80;3.80;;;;;;;;4999871;28;8867;-86
2022/08/14 09:03:33;;;;;;;;;3.80;3.80;;;;;;;;5001862;28;8860;-82
2022/08/14 09:06:01;;;;;;;;;4.80;4.80;;;;;;;;5003735;28;8943;-82
2022/08/14 09:08:30;;;;;;;;;4.00;4.00;;;;;;;;4998836;28;8875;-85
2022/08/14 09:10:58;;;;;;;;;5.00;3.20;;;;;;;;4997388;28;8890;-85
2022/08/14 09:13:26;;;;;;;;;4.40;4.40;;;;;;;;4999682;28;8938;-87
2022/08/14 09:15:54;;;;;;;;;3.00;3.00;;;;;;;;5000098;28;8923;-86
2022/08/14 09:18:26;;;;;;;;;4.00;4.00;;;;;;;;4994349;28;8837;-81
2022/08/14 09:20:57;;;;;;;;;4.20;4.20;;;;;;;;4998932;28;8873;-84
2022/08/14 09:23:24;;;;;;;;;4.40;4.40;;;;;;;;4996718;28;8928;-84
2022/08/14 09:25:53;;;;;;;;;5.80;5.00;;;;;;;;4998498;28;8877;-87
2022/08/14 09:28:21;;;;;;;;;5.60;5.60;;;;;;;;5001176;28;8872;-85
2022/08/14 09:30:52;;;;;;;;;4.40;4.40;;;;;;;;4996456;28;8809;-83
2022/08/14 09:33:37;;;;;;;;;4.60;4.60;;;;;;;;4996891;28;8880;-85
2022/08/14 09:36:23;;;;;;;;;5.20;3.60;;;;;;;;4996742;28;8880;-86
2022/08/14 09:38:59;;;;;;;;;4.20;4.20;;;;;;;;4998008;28;8856;-86
2022/08/14 09:41:38;;;;;;;;;3.40;3.40;;;;;;;;4998303;28;8919;-82
2022/08/14 09:44:08;;;;;;;;;0.60;0.60;;;;;;;;4998709;28;8938;-85
2022/08/14 09:46:36;;;;;;;;;3.00;3.00;;;;;;;;5002098;28;9023;-85
2022/08/14 09:49:07;;;;;;;;;3.00;3.00;;;;;;;;4997428;28;8844;-85
2022/08/14 09:51:38;;;;;;;;;3.00;3.00;;;;;;;;4996140;28;8865;-82
2022/08/14 09:54:11;;;;;;;;;2.00;2.00;;;;;;;;5003728;28;8883;-81
2022/08/14 09:56:45;;;;;;;;;3.40;3.40;;;;;;;;5000345;28;8911;-81
2022/08/14 09:59:21;;;;;;;;;3.20;3.20;;;;;;;;4998492;28;8880;-82
2022/08/14 10:01:49;;;;;;;;;2.80;2.80;;;;;;;;4999607;28;8852;-81
2022/08/14 10:04:24;;;;;;;;;4.20;4.00;;;;;;;;5000183;28;8876;-81
2022/08/14 10:06:53;;;;;;;;;2.60;2.60;;;;;;;;5002367;28;8946;-80
2022/08/14 10:09:21;;;;;;;;;3.00;3.00;;;;;;;;4998255;28;8921;-86
2022/08/14 10:11:56;;;;;;;;;3.40;3.40;;;;;;;;4998814;28;8864;-84
2022/08/14 10:14:26;;;;;;;;;3.00;3.00;;;;;;;;4997612;28;9023;-85
2022/08/14 10:16:56;;;;;;;;;3.00;3.00;;;;;;;;5004982;28;8880;-88
2022/08/14 10:19:27;;;;;;;;;4.00;3.00;;;;;;;;5004621;28;8875;-88
2022/08/14 10:21:59;;;;;;;;;4.00;4.00;;;;;;;;5009082;28;8899;-90
2022/08/14 10:24:29;;;;;;;;;3.00;3.00;;;;;;;;5005127;28;8884;-89
2022/08/14 10:26:57;;;;;;;;;3.00;3.00;;;;;;;;4997807;28;8876;-93
2022/08/14 10:29:33;;;;;;;;;4.00;4.00;;;;;;;;5004494;28;8884;-85
2022/08/14 10:32:00;;;;;;;;;2.80;2.80;;;;;;;;4997734;28;8828;-88
2022/08/14 10:34:34;;;;;;;;;5.20;3.80;;;;;;;;5001345;28;9654;-82
2022/08/14 10:37:07;;;;;;;;;3.80;3.80;;;;;;;;5004419;28;8975;-83
2022/08/14 10:39:36;;;;;;;;;4.00;4.00;;;;;;;;5004310;28;8872;-83
2022/08/14 10:42:06;;;;;;;;;3.40;3.40;;;;;;;;5000203;28;8880;-84
2022/08/14 10:44:37;;;;;;;;;4.00;4.00;;;;;;;;4996103;28;8958;-80
2022/08/14 10:47:08;;;;;;;;;6.80;3.60;;;;;;;;5002059;28;8882;-81
2022/08/14 10:49:46;;;;;;;;;3.60;3.60;;;;;;;;5003138;28;8880;-82
2022/08/14 10:52:20;;;;;;;;;3.20;3.20;;;;;;;;5000540;28;8927;-81
2022/08/14 10:54:48;;;;;;;;;6.20;6.00;;;;;;;;5000402;28;8880;-86
2022/08/14 10:57:19;;;;;;;;;5.60;5.60;;;;;;;;5000597;28;8974;-85
2022/08/14 10:59:49;;;;;;;;;3.80;3.80;;;;;;;;5001405;28;8872;-84
2022/08/14 11:02:23;;;;;;;;;3.00;3.00;;;;;;;;4996996;28;8859;-79
2022/08/14 11:05:06;;;;;;;;;4.00;4.00;;;;;;;;5004149;28;8903;-77
2022/08/14 11:07:38;;;;;;;;;3.00;3.00;;;;;;;;5000934;28;8860;-81
2022/08/14 11:10:09;;;;;;;;;3.00;3.00;;;;;;;;5001337;28;8860;-81
2022/08/14 11:12:46;;;;;;;;;4.00;4.00;;;;;;;;5005904;28;8876;-82
2022/08/14 11:15:16;;;;;;;;;5.40;5.40;;;;;;;;5002813;28;8884;-85
2022/08/14 11:17:46;;;;;;;;;3.00;3.00;;;;;;;;5001620;28;8888;-84
2022/08/14 11:20:16;;;;;;;;;3.00;3.00;;;;;;;;4999474;28;8963;-82
2022/08/14 11:22:45;;;;;;;;;3.00;3.00;;;;;;;;5001306;28;8896;-83
2022/08/14 11:25:14;;;;;;;;;3.00;3.00;;;;;;;;4994910;28;9086;-79
2022/08/14 11:27:43;;;;;;;;;3.00;3.00;;;;;;;;5001348;28;8893;-81
2022/08/14 11:30:12;;;;;;;;;4.20;4.20;;;;;;;;5002851;28;8899;-81
2022/08/14 11:32:44;;;;;;;;;2.20;2.20;;;;;;;;4992529;28;9666;-80
2022/08/14 11:35:15;;;;;;;;;4.80;4.80;;;;;;;;4998994;28;8883;-81
2022/08/14 11:37:52;;;;;;;;;4.60;4.60;;;;;;;;4999587;28;8884;-81
2022/08/14 11:40:22;;;;;;;;;4.00;4.00;;;;;;;;5000102;28;8864;-82
2022/08/14 11:42:55;;;;;;;;;3.80;3.80;;;;;;;;4999407;28;8888;-80
2022/08/14 11:45:23;;;;;;;;;4.00;4.00;;;;;;;;5000478;28;8872;-81
2022/08/14 11:47:52;;;;;;;;;4.00;4.00;;;;;;;;4999788;28;8904;-78
2022/08/14 11:50:23;;;;;;;;;4.80;4.80;;;;;;;;5002486;28;8868;-81
2022/08/14 11:52:55;;;;;;;;;3.00;3.00;;;;;;;;4995394;28;8876;-80
2022/08/14 11:55:25;;;;;;;;;3.00;3.00;;;;;;;;4999210;28;8894;-81
2022/08/14 11:58:01;;;;;;;;;5.60;4.00;;;;;;;;4996870;28;9041;-81
2022/08/14 12:00:29;;;;;;;;;3.60;3.60;;;;;;;;4998761;28;9721;-79
2022/08/14 12:02:59;;;;;;;;;4.40;4.00;;;;;;;;4999620;28;8872;-82
2022/08/14 12:05:34;;;;;;;;;5.60;5.60;;;;;;;;5003843;28;8907;-81
2022/08/14 12:08:06;;;;;;;;;4.80;4.80;;;;;;;;4998553;28;8950;-82
2022/08/14 12:10:34;;;;;;;;;5.00;5.00;;;;;;;;4998734;28;8892;-83
2022/08/14 12:13:12;;;;;;;;;5.20;5.20;;;;;;;;5000384;28;8876;-84
2022/08/14 12:15:41;;;;;;;;;6.00;6.00;;;;;;;;4999315;28;9022;-81
2022/08/14 12:18:08;;;;;;;;;6.00;6.00;;;;;;;;5000707;28;8880;-80
2022/08/14 12:20:39;;;;;;;;;5.80;5.80;;;;;;;;4999665;28;8882;-78
2022/08/14 12:23:08;;;;;;;;;5.00;5.00;;;;;;;;4995523;28;8874;-82
2022/08/14 12:25:35;;;;;;;;;8.00;6.00;;;;;;;;5000603;28;8880;-81
2022/08/14 12:28:11;;;;;;;;;6.60;5.60;;;;;;;;4998801;28;8882;-82
2022/08/14 12:30:41;;;;;;;;;6.00;6.00;;;;;;;;4994089;28;9547;-79
2022/08/14 12:33:24;;;;;;;;;7.00;7.00;;;;;;;;4995108;28;9744;-81
2022/08/14 12:35:54;;;;;;;;;7.60;7.60;;;;;;;;5001121;28;8887;-80
2022/08/14 12:38:34;;;;;;;;;8.00;8.00;;;;;;;;5001468;28;9675;-80
2022/08/14 12:41:04;;;;;;;;;8.00;8.00;;;;;;;;5002466;28;8890;-77
2022/08/14 12:43:33;;;;;;;;;6.60;6.60;;;;;;;;4998475;28;8997;-80
2022/08/14 12:46:01;;;;;;;;;8.00;8.00;;;;;;;;4996658;28;8884;-81
2022/08/14 12:48:30;;;;;;;;;7.60;7.60;;;;;;;;4995976;28;8864;-81
2022/08/14 12:50:59;;;;;;;;;6.00;6.00;;;;;;;;4996523;28;8900;-79
2022/08/14 12:53:35;;;;;;;;;6.00;6.00;;;;;;;;4999631;28;8892;-82
2022/08/14 12:56:06;;;;;;;;;5.40;5.40;;;;;;;;4993272;28;8884;-80
2022/08/14 12:58:34;;;;;;;;;6.00;6.00;;;;;;;;4998966;28;8891;-82
2022/08/14 13:01:02;;;;;;;;;5.00;5.00;;;;;;;;4997965;28;8821;-83
2022/08/14 13:03:34;;;;;;;;;4.00;4.00;;;;;;;;4997598;28;8907;-80
2022/08/14 13:06:03;;;;;;;;;4.00;4.00;;;;;;;;5000120;28;9010;-80
2022/08/14 13:08:33;;;;;;;;;3.20;3.20;;;;;;;;4997346;28;8887;-80
2022/08/14 13:11:00;;;;;;;;;4.00;4.00;;;;;;;;4999986;28;8864;-79
2022/08/14 13:13:33;;;;;;;;;3.60;3.60;;;;;;;;4997112;28;8904;-77
2022/08/14 13:16:00;;;;;;;;;2.00;2.00;;;;;;;;4998475;28;8931;-81
2022/08/14 13:18:28;;;;;;;;;5.00;5.00;;;;;;;;5001969;28;8872;-80
2022/08/14 13:21:00;;;;;;;;;4.00;4.00;;;;;;;;5000337;28;8887;-80
2022/08/14 13:23:32;;;;;;;;;6.00;6.00;;;;;;;;4999444;28;8860;-81
2022/08/14 13:26:00;;;;;;;;;4.20;4.00;;;;;;;;4998767;28;8868;-80
2022/08/14 13:28:29;;;;;;;;;4.80;4.80;;;;;;;;5003365;28;8935;-81
2022/08/14 13:30:58;;;;;;;;;4.00;4.00;;;;;;;;4999247;28;8840;-82
2022/08/14 13:33:25;;;;;;;;;4.40;4.40;;;;;;;;5002625;28;8906;-82
2022/08/14 13:35:53;;;;;;;;;4.80;4.80;;;;;;;;5004634;28;8860;-80
2022/08/14 13:38:21;;;;;;;;;4.80;4.80;;;;;;;;5003216;28;8982;-82
2022/08/14 13:40:55;;;;;;;;;5.00;5.00;;;;;;;;5001414;28;9430;-81
2022/08/14 13:43:24;;;;;;;;;5.40;4.80;;;;;;;;5001096;28;8881;-77
2022/08/14 13:45:54;;;;;;;;;5.20;5.20;;;;;;;;5001294;28;8886;-81
2022/08/14 13:48:22;;;;;;;;;3.80;3.80;;;;;;;;4998750;28;8853;-82
2022/08/14 13:50:54;;;;;;;;;4.20;4.20;;;;;;;;5001796;28;9733;-84
2022/08/14 13:53:25;;;;;;;;;5.80;5.80;;;;;;;;5001371;28;9014;-81
2022/08/14 13:55:56;;;;;;;;;5.00;5.00;;;;;;;;5004441;28;8896;-79
2022/08/14 13:58:24;;;;;;;;;6.00;6.00;;;;;;;;5005739;28;8894;-83
2022/08/14 14:00:53;;;;;;;;;4.20;4.20;;;;;;;;4999640;28;8824;-83
2022/08/14 14:03:21;;;;;;;;;6.20;6.20;;;;;;;;5005064;28;8868;-81
2022/08/14 14:05:52;;;;;;;;;8.20;5.60;;;;;;;;5002993;28;8892;-82
2022/08/14 14:08:21;;;;;;;;;4.20;4.20;;;;;;;;5002895;28;8876;-81
2022/08/14 14:10:48;;;;;;;;;4.20;4.20;;;;;;;;5001508;28;8969;-78
2022/08/14 14:13:18;;;;;;;;;6.20;5.80;;;;;;;;5001361;28;9434;-83
2022/08/14 14:15:47;;;;;;;;;4.40;4.20;;;;;;;;5001617;28;8930;-82
2022/08/14 14:18:15;;;;;;;;;5.00;5.00;;;;;;;;5004375;28;8890;-80
2022/08/14 14:20:44;;;;;;;;;4.40;4.40;;;;;;;;5001505;28;8902;-81
2022/08/14 14:23:14;;;;;;;;;8.20;6.40;;;;;;;;4995169;28;9030;-82
2022/08/14 14:25:44;;;;;;;;;6.00;6.00;;;;;;;;5001260;28;9619;-84
2022/08/14 14:28:16;;;;;;;;;6.00;6.00;;;;;;;;5004392;28;8840;-83
2022/08/14 14:30:47;;;;;;;;;4.40;3.80;;;;;;;;5001896;28;9626;-86
2022/08/14 14:33:15;;;;;;;;;6.80;6.80;;;;;;;;5001856;28;8911;-74
2022/08/14 14:35:46;;;;;;;;;6.40;6.40;;;;;;;;4996713;28;9718;-76
2022/08/14 14:38:18;;;;;;;;;6.40;5.60;;;;;;;;5003941;28;8860;-78
2022/08/14 14:40:48;;;;;;;;;5.00;5.00;;;;;;;;4994734;28;8999;-78
2022/08/14 14:43:17;;;;;;;;;8.20;8.20;;;;;;;;4999103;28;8887;-79
2022/08/14 14:45:46;;;;;;;;;6.80;6.80;;;;;;;;5001264;28;8964;-78
2022/08/14 14:48:14;;;;;;;;;8.80;6.80;;;;;;;;4997603;28;8884;-79
2022/08/14 14:50:41;;;;;;;;;6.40;5.00;;;;;;;;5004268;28;8864;-79
2022/08/14 14:53:14;;;;;;;;;6.00;6.00;;;;;;;;5001622;28;8864;-77
2022/08/14 14:55:44;;;;;;;;;6.00;6.00;;;;;;;;5003439;28;9801;-77
2022/08/14 14:58:13;;;;;;;;;6.00;6.00;;;;;;;;4984899;28;8884;-79
2022/08/14 15:00:45;;;;;;;;;4.60;4.60;;;;;;;;5001314;28;8812;-81
2022/08/14 15:03:12;;;;;;;;;4.00;4.00;;;;;;;;5000741;28;9724;-79
2022/08/14 15:05:40;;;;;;;;;1.80;1.80;;;;;;;;5003182;28;8884;-78
2022/08/14 15:08:07;;;;;;;;;2.80;2.80;;;;;;;;5002653;28;8878;-78
2022/08/14 15:10:37;;;;;;;;;4.00;2.00;;;;;;;;5002853;28;9615;-78
2022/08/14 15:13:05;;;;;;;;;1.60;1.40;;;;;;;;5001142;28;8861;-79
2022/08/14 15:15:34;;;;;;;;;1.40;1.40;;;;;;;;5001432;28;9421;-78
2022/08/14 15:18:03;;;;;;;;;2.40;2.00;;;;;;;;5002362;28;8880;-79
2022/08/14 15:20:30;;;;;;;;;1.20;1.20;;;;;;;;5000297;28;8937;-78
2022/08/14 15:22:59;;;;;;;;;1.40;1.40;;;;;;;;5001877;28;8896;-78
2022/08/14 15:25:30;;;;;;;;;2.80;2.80;;;;;;;;5003289;28;8896;-78